sensor_id;sensor_type;location;lat;lon;timestamp;P1;durP1;ratioP1;P2;durP2;ratioP2
24557;SDS011;12726;49.148;8.582;2023-08-17T00:00:06;2.78;;;1.65;;
24557;SDS011;12726;49.148;8.582;2023-08-17T00:02:53;3.75;;;1.40;;
24557;SDS011;12726;49.148;8.582;2023-08-17T00:05:39;3.10;;;1.48;;
24557;SDS011;12726;49.148;8.582;2023-08-17T00:08:24;3.85;;;1.85;;
24557;SDS011;12726;49.148;8.582;2023-08-17T00:11:11;2.67;;;1.77;;
24557;SDS011;12726;49.148;8.582;2023-08-17T00:13:56;5.82;;;2.20;;
24557;SDS011;12726;49.148;8.582;2023-08-17T00:16:42;3.67;;;1.52;;
24557;SDS011;12726;49.148;8.582;2023-08-17T00:19:27;4.72;;;1.58;;
24557;SDS011;12726;49.148;8.582;2023-08-17T00:22:12;3.60;;;1.42;;
24557;SDS011;12726;49.148;8.582;2023-08-17T00:24:58;2.58;;;1.67;;
24557;SDS011;12726;49.148;8.582;2023-08-17T00:27:44;1.90;;;1.30;;
24557;SDS011;12726;49.148;8.582;2023-08-17T00:30:30;2.70;;;1.38;;
24557;SDS011;12726;49.148;8.582;2023-08-17T00:33:15;1.23;;;1.10;;
24557;SDS011;12726;49.148;8.582;2023-08-17T00:36:00;2.13;;;1.45;;
24557;SDS011;12726;49.148;8.582;2023-08-17T00:38:46;1.60;;;1.42;;
24557;SDS011;12726;49.148;8.582;2023-08-17T00:41:31;2.95;;;1.30;;
24557;SDS011;12726;49.148;8.582;2023-08-17T00:44:18;2.05;;;1.40;;
24557;SDS011;12726;49.148;8.582;2023-08-17T00:47:03;4.22;;;1.58;;
24557;SDS011;12726;49.148;8.582;2023-08-17T00:49:49;3.85;;;1.40;;
24557;SDS011;12726;49.148;8.582;2023-08-17T00:52:35;2.65;;;1.58;;
24557;SDS011;12726;49.148;8.582;2023-08-17T00:55:20;7.90;;;1.45;;
24557;SDS011;12726;49.148;8.582;2023-08-17T00:58:05;3.75;;;1.60;;
24557;SDS011;12726;49.148;8.582;2023-08-17T01:00:52;4.20;;;1.60;;
24557;SDS011;12726;49.148;8.582;2023-08-17T01:03:39;3.65;;;1.70;;
24557;SDS011;12726;49.148;8.582;2023-08-17T01:06:25;2.38;;;1.67;;
24557;SDS011;12726;49.148;8.582;2023-08-17T01:09:11;2.38;;;2.05;;
24557;SDS011;12726;49.148;8.582;2023-08-17T01:11:58;2.35;;;1.42;;
24557;SDS011;12726;49.148;8.582;2023-08-17T01:14:50;3.97;;;1.80;;
24557;SDS011;12726;49.148;8.582;2023-08-17T01:17:47;1.98;;;1.60;;
24557;SDS011;12726;49.148;8.582;2023-08-17T01:20:39;2.58;;;1.70;;
24557;SDS011;12726;49.148;8.582;2023-08-17T01:23:26;2.58;;;1.60;;
24557;SDS011;12726;49.148;8.582;2023-08-17T01:26:11;2.72;;;1.10;;
24557;SDS011;12726;49.148;8.582;2023-08-17T01:28:59;5.18;;;1.70;;
24557;SDS011;12726;49.148;8.582;2023-08-17T01:31:47;2.85;;;1.38;;
24557;SDS011;12726;49.148;8.582;2023-08-17T01:34:39;3.22;;;1.63;;
24557;SDS011;12726;49.148;8.582;2023-08-17T01:37:29;3.05;;;1.70;;
24557;SDS011;12726;49.148;8.582;2023-08-17T01:40:19;3.72;;;1.85;;
24557;SDS011;12726;49.148;8.582;2023-08-17T01:43:05;6.72;;;1.92;;
24557;SDS011;12726;49.148;8.582;2023-08-17T01:45:51;2.88;;;1.98;;
24557;SDS011;12726;49.148;8.582;2023-08-17T01:48:36;3.28;;;1.50;;
24557;SDS011;12726;49.148;8.582;2023-08-17T01:51:22;4.40;;;1.70;;
24557;SDS011;12726;49.148;8.582;2023-08-17T01:54:08;4.38;;;1.80;;
24557;SDS011;12726;49.148;8.582;2023-08-17T01:56:55;2.83;;;1.50;;
24557;SDS011;12726;49.148;8.582;2023-08-17T01:59:40;5.28;;;2.08;;
24557;SDS011;12726;49.148;8.582;2023-08-17T02:02:25;6.00;;;1.77;;
24557;SDS011;12726;49.148;8.582;2023-08-17T02:05:11;7.07;;;1.90;;
24557;SDS011;12726;49.148;8.582;2023-08-17T02:07:56;2.92;;;1.85;;
24557;SDS011;12726;49.148;8.582;2023-08-17T02:10:42;3.55;;;1.50;;
24557;SDS011;12726;49.148;8.582;2023-08-17T02:13:28;5.13;;;1.70;;
24557;SDS011;12726;49.148;8.582;2023-08-17T02:16:14;4.90;;;2.15;;
24557;SDS011;12726;49.148;8.582;2023-08-17T02:18:59;3.15;;;1.77;;
24557;SDS011;12726;49.148;8.582;2023-08-17T02:21:45;4.80;;;2.05;;
24557;SDS011;12726;49.148;8.582;2023-08-17T02:24:30;2.42;;;1.90;;
24557;SDS011;12726;49.148;8.582;2023-08-17T02:27:15;5.80;;;2.10;;
24557;SDS011;12726;49.148;8.582;2023-08-17T02:30:02;4.78;;;1.80;;
24557;SDS011;12726;49.148;8.582;2023-08-17T02:32:48;4.22;;;2.50;;
24557;SDS011;12726;49.148;8.582;2023-08-17T02:35:34;5.28;;;3.10;;
24557;SDS011;12726;49.148;8.582;2023-08-17T02:38:19;4.65;;;2.40;;
24557;SDS011;12726;49.148;8.582;2023-08-17T02:41:04;8.35;;;2.50;;
24557;SDS011;12726;49.148;8.582;2023-08-17T02:43:50;3.85;;;2.30;;
24557;SDS011;12726;49.148;8.582;2023-08-17T02:46:36;2.47;;;2.10;;
24557;SDS011;12726;49.148;8.582;2023-08-17T02:49:22;2.97;;;2.20;;
24557;SDS011;12726;49.148;8.582;2023-08-17T02:52:07;4.30;;;2.38;;
24557;SDS011;12726;49.148;8.582;2023-08-17T02:54:53;2.20;;;2.00;;
24557;SDS011;12726;49.148;8.582;2023-08-17T02:57:38;3.80;;;2.65;;
24557;SDS011;12726;49.148;8.582;2023-08-17T03:00:23;3.47;;;2.53;;
24557;SDS011;12726;49.148;8.582;2023-08-17T03:03:09;5.05;;;2.45;;
24557;SDS011;12726;49.148;8.582;2023-08-17T03:05:55;5.55;;;2.65;;
24557;SDS011;12726;49.148;8.582;2023-08-17T03:08:40;2.53;;;2.15;;
24557;SDS011;12726;49.148;8.582;2023-08-17T03:11:26;2.63;;;2.28;;
24557;SDS011;12726;49.148;8.582;2023-08-17T03:14:11;5.18;;;2.40;;
24557;SDS011;12726;49.148;8.582;2023-08-17T03:16:57;5.03;;;3.05;;
24557;SDS011;12726;49.148;8.582;2023-08-17T03:19:44;5.38;;;2.33;;
24557;SDS011;12726;49.148;8.582;2023-08-17T03:22:29;3.15;;;2.20;;
24557;SDS011;12726;49.148;8.582;2023-08-17T03:25:14;5.95;;;2.30;;
24557;SDS011;12726;49.148;8.582;2023-08-17T03:27:59;4.95;;;2.60;;
24557;SDS011;12726;49.148;8.582;2023-08-17T03:30:45;4.88;;;2.70;;
24557;SDS011;12726;49.148;8.582;2023-08-17T03:33:30;4.88;;;3.15;;
24557;SDS011;12726;49.148;8.582;2023-08-17T03:36:17;2.57;;;2.37;;
24557;SDS011;12726;49.148;8.582;2023-08-17T03:39:02;5.88;;;2.13;;
24557;SDS011;12726;49.148;8.582;2023-08-17T03:41:48;4.35;;;2.50;;
24557;SDS011;12726;49.148;8.582;2023-08-17T03:44:34;7.22;;;3.00;;
24557;SDS011;12726;49.148;8.582;2023-08-17T03:47:19;3.70;;;2.50;;
24557;SDS011;12726;49.148;8.582;2023-08-17T03:50:05;4.25;;;2.70;;
24557;SDS011;12726;49.148;8.582;2023-08-17T03:52:52;3.65;;;2.78;;
24557;SDS011;12726;49.148;8.582;2023-08-17T03:55:37;3.13;;;2.45;;
24557;SDS011;12726;49.148;8.582;2023-08-17T03:58:23;11.30;;;2.83;;
24557;SDS011;12726;49.148;8.582;2023-08-17T04:01:10;4.80;;;3.00;;
24557;SDS011;12726;49.148;8.582;2023-08-17T04:03:56;4.53;;;3.08;;
24557;SDS011;12726;49.148;8.582;2023-08-17T04:06:41;6.07;;;2.72;;
24557;SDS011;12726;49.148;8.582;2023-08-17T04:09:28;4.68;;;3.40;;
24557;SDS011;12726;49.148;8.582;2023-08-17T04:12:14;7.30;;;4.22;;
24557;SDS011;12726;49.148;8.582;2023-08-17T04:14:59;8.55;;;5.72;;
24557;SDS011;12726;49.148;8.582;2023-08-17T04:17:44;7.35;;;5.13;;
24557;SDS011;12726;49.148;8.582;2023-08-17T04:20:30;6.65;;;4.35;;
24557;SDS011;12726;49.148;8.582;2023-08-17T04:23:15;6.38;;;4.60;;
24557;SDS011;12726;49.148;8.582;2023-08-17T04:26:02;6.97;;;4.68;;
24557;SDS011;12726;49.148;8.582;2023-08-17T04:28:47;7.32;;;4.65;;
24557;SDS011;12726;49.148;8.582;2023-08-17T04:31:32;6.00;;;4.55;;
24557;SDS011;12726;49.148;8.582;2023-08-17T04:34:18;6.82;;;4.95;;
24557;SDS011;12726;49.148;8.582;2023-08-17T04:37:03;7.88;;;5.72;;
24557;SDS011;12726;49.148;8.582;2023-08-17T04:39:49;8.90;;;5.30;;
24557;SDS011;12726;49.148;8.582;2023-08-17T04:42:36;9.95;;;6.22;;
24557;SDS011;12726;49.148;8.582;2023-08-17T04:45:21;10.60;;;6.95;;
24557;SDS011;12726;49.148;8.582;2023-08-17T04:48:07;8.30;;;5.93;;
24557;SDS011;12726;49.148;8.582;2023-08-17T04:50:52;10.95;;;7.13;;
24557;SDS011;12726;49.148;8.582;2023-08-17T04:53:38;9.05;;;6.47;;
24557;SDS011;12726;49.148;8.582;2023-08-17T04:56:23;7.57;;;5.80;;
24557;SDS011;12726;49.148;8.582;2023-08-17T04:59:10;6.18;;;4.88;;
24557;SDS011;12726;49.148;8.582;2023-08-17T05:01:55;7.75;;;5.18;;
24557;SDS011;12726;49.148;8.582;2023-08-17T05:04:41;6.65;;;5.35;;
24557;SDS011;12726;49.148;8.582;2023-08-17T05:07:26;5.70;;;4.40;;
24557;SDS011;12726;49.148;8.582;2023-08-17T05:10:11;6.65;;;5.30;;
24557;SDS011;12726;49.148;8.582;2023-08-17T05:12:57;6.22;;;4.68;;
24557;SDS011;12726;49.148;8.582;2023-08-17T05:15:44;7.68;;;5.43;;
24557;SDS011;12726;49.148;8.582;2023-08-17T05:18:29;7.60;;;5.45;;
24557;SDS011;12726;49.148;8.582;2023-08-17T05:21:14;6.28;;;5.57;;
24557;SDS011;12726;49.148;8.582;2023-08-17T05:24:00;6.95;;;4.93;;
24557;SDS011;12726;49.148;8.582;2023-08-17T05:26:45;5.75;;;5.05;;
24557;SDS011;12726;49.148;8.582;2023-08-17T05:29:31;6.57;;;4.20;;
24557;SDS011;12726;49.148;8.582;2023-08-17T05:32:17;7.25;;;3.67;;
24557;SDS011;12726;49.148;8.582;2023-08-17T05:35:03;4.18;;;3.70;;
24557;SDS011;12726;49.148;8.582;2023-08-17T05:37:49;6.25;;;4.00;;
24557;SDS011;12726;49.148;8.582;2023-08-17T05:40:34;3.92;;;2.97;;
24557;SDS011;12726;49.148;8.582;2023-08-17T05:43:19;5.18;;;3.20;;
24557;SDS011;12726;49.148;8.582;2023-08-17T05:46:05;3.67;;;2.90;;
24557;SDS011;12726;49.148;8.582;2023-08-17T05:48:51;4.28;;;3.33;;
24557;SDS011;12726;49.148;8.582;2023-08-17T05:51:37;4.45;;;3.00;;
24557;SDS011;12726;49.148;8.582;2023-08-17T05:54:22;5.07;;;3.30;;
24557;SDS011;12726;49.148;8.582;2023-08-17T05:57:08;6.03;;;2.83;;
24557;SDS011;12726;49.148;8.582;2023-08-17T05:59:54;4.43;;;2.90;;
24557;SDS011;12726;49.148;8.582;2023-08-17T06:02:39;5.93;;;3.03;;
24557;SDS011;12726;49.148;8.582;2023-08-17T06:05:26;6.13;;;2.80;;
24557;SDS011;12726;49.148;8.582;2023-08-17T06:08:12;3.92;;;3.03;;
24557;SDS011;12726;49.148;8.582;2023-08-17T06:10:58;4.05;;;3.15;;
24557;SDS011;12726;49.148;8.582;2023-08-17T06:13:43;4.53;;;2.78;;
24557;SDS011;12726;49.148;8.582;2023-08-17T06:16:28;4.63;;;2.92;;
24557;SDS011;12726;49.148;8.582;2023-08-17T06:19:13;5.68;;;3.47;;
24557;SDS011;12726;49.148;8.582;2023-08-17T06:22:00;6.05;;;3.08;;
24557;SDS011;12726;49.148;8.582;2023-08-17T06:24:45;5.40;;;3.05;;
24557;SDS011;12726;49.148;8.582;2023-08-17T06:27:31;3.83;;;2.63;;
24557;SDS011;12726;49.148;8.582;2023-08-17T06:30:17;6.32;;;3.30;;
24557;SDS011;12726;49.148;8.582;2023-08-17T06:33:02;4.95;;;3.40;;
24557;SDS011;12726;49.148;8.582;2023-08-17T06:35:48;5.55;;;3.72;;
24557;SDS011;12726;49.148;8.582;2023-08-17T06:38:35;5.00;;;4.03;;
24557;SDS011;12726;49.148;8.582;2023-08-17T06:41:20;4.63;;;3.47;;
24557;SDS011;12726;49.148;8.582;2023-08-17T06:44:06;5.20;;;3.67;;
24557;SDS011;12726;49.148;8.582;2023-08-17T06:46:51;6.78;;;4.50;;
24557;SDS011;12726;49.148;8.582;2023-08-17T06:49:36;7.00;;;3.72;;
24557;SDS011;12726;49.148;8.582;2023-08-17T06:52:22;8.27;;;3.80;;
24557;SDS011;12726;49.148;8.582;2023-08-17T06:55:09;4.45;;;3.53;;
24557;SDS011;12726;49.148;8.582;2023-08-17T06:57:54;4.95;;;3.95;;
24557;SDS011;12726;49.148;8.582;2023-08-17T07:00:40;6.53;;;3.22;;
24557;SDS011;12726;49.148;8.582;2023-08-17T07:03:25;7.65;;;3.45;;
24557;SDS011;12726;49.148;8.582;2023-08-17T07:06:10;6.00;;;3.38;;
24557;SDS011;12726;49.148;8.582;2023-08-17T07:08:56;5.47;;;3.40;;
24557;SDS011;12726;49.148;8.582;2023-08-17T07:11:42;9.77;;;3.67;;
24557;SDS011;12726;49.148;8.582;2023-08-17T07:14:28;5.35;;;3.10;;
24557;SDS011;12726;49.148;8.582;2023-08-17T07:17:13;4.72;;;3.00;;
24557;SDS011;12726;49.148;8.582;2023-08-17T07:19:59;7.20;;;2.92;;
24557;SDS011;12726;49.148;8.582;2023-08-17T07:22:44;4.32;;;3.05;;
24557;SDS011;12726;49.148;8.582;2023-08-17T07:25:30;5.35;;;2.78;;
24557;SDS011;12726;49.148;8.582;2023-08-17T07:28:17;8.15;;;3.42;;
24557;SDS011;12726;49.148;8.582;2023-08-17T07:31:02;4.65;;;3.08;;
24557;SDS011;12726;49.148;8.582;2023-08-17T07:33:49;7.13;;;3.35;;
24557;SDS011;12726;49.148;8.582;2023-08-17T07:36:35;10.02;;;3.55;;
24557;SDS011;12726;49.148;8.582;2023-08-17T07:39:20;8.27;;;3.67;;
24557;SDS011;12726;49.148;8.582;2023-08-17T07:42:07;7.00;;;2.85;;
24557;SDS011;12726;49.148;8.582;2023-08-17T07:44:54;8.75;;;3.90;;
24557;SDS011;12726;49.148;8.582;2023-08-17T07:47:39;4.85;;;3.58;;
24557;SDS011;12726;49.148;8.582;2023-08-17T07:50:25;7.35;;;3.58;;
24557;SDS011;12726;49.148;8.582;2023-08-17T07:53:10;7.47;;;3.97;;
24557;SDS011;12726;49.148;8.582;2023-08-17T07:55:56;5.90;;;3.60;;
24557;SDS011;12726;49.148;8.582;2023-08-17T07:58:41;8.35;;;3.67;;
24557;SDS011;12726;49.148;8.582;2023-08-17T08:01:28;8.50;;;2.90;;
24557;SDS011;12726;49.148;8.582;2023-08-17T08:04:13;5.97;;;3.63;;
24557;SDS011;12726;49.148;8.582;2023-08-17T08:06:58;6.32;;;4.07;;
24557;SDS011;12726;49.148;8.582;2023-08-17T08:09:44;4.60;;;3.58;;
24557;SDS011;12726;49.148;8.582;2023-08-17T08:12:29;6.20;;;3.85;;
24557;SDS011;12726;49.148;8.582;2023-08-17T08:15:14;7.20;;;3.88;;
24557;SDS011;12726;49.148;8.582;2023-08-17T08:18:01;5.25;;;4.00;;
24557;SDS011;12726;49.148;8.582;2023-08-17T08:20:47;5.53;;;4.05;;
24557;SDS011;12726;49.148;8.582;2023-08-17T08:23:32;5.78;;;3.78;;
24557;SDS011;12726;49.148;8.582;2023-08-17T08:26:18;5.65;;;3.58;;
24557;SDS011;12726;49.148;8.582;2023-08-17T08:29:03;4.47;;;3.38;;
24557;SDS011;12726;49.148;8.582;2023-08-17T08:31:49;6.40;;;4.75;;
24557;SDS011;12726;49.148;8.582;2023-08-17T08:34:35;5.65;;;4.32;;
24557;SDS011;12726;49.148;8.582;2023-08-17T08:37:21;5.68;;;4.43;;
24557;SDS011;12726;49.148;8.582;2023-08-17T08:40:07;5.18;;;4.03;;
24557;SDS011;12726;49.148;8.582;2023-08-17T08:42:56;4.85;;;3.58;;
24557;SDS011;12726;49.148;8.582;2023-08-17T08:45:43;5.15;;;3.35;;
24557;SDS011;12726;49.148;8.582;2023-08-17T08:48:29;6.90;;;4.30;;
24557;SDS011;12726;49.148;8.582;2023-08-17T08:51:17;7.10;;;6.03;;
24557;SDS011;12726;49.148;8.582;2023-08-17T08:54:07;9.73;;;6.03;;
24557;SDS011;12726;49.148;8.582;2023-08-17T08:56:57;9.15;;;5.95;;
24557;SDS011;12726;49.148;8.582;2023-08-17T08:59:46;6.53;;;5.82;;
24557;SDS011;12726;49.148;8.582;2023-08-17T09:02:32;9.50;;;5.72;;
24557;SDS011;12726;49.148;8.582;2023-08-17T09:05:19;7.32;;;6.38;;
24557;SDS011;12726;49.148;8.582;2023-08-17T09:08:08;9.85;;;7.10;;
24557;SDS011;12726;49.148;8.582;2023-08-17T09:10:55;7.55;;;5.70;;
24557;SDS011;12726;49.148;8.582;2023-08-17T09:13:41;8.93;;;6.18;;
24557;SDS011;12726;49.148;8.582;2023-08-17T09:16:26;10.13;;;5.50;;
24557;SDS011;12726;49.148;8.582;2023-08-17T09:19:12;9.50;;;6.00;;
24557;SDS011;12726;49.148;8.582;2023-08-17T09:21:57;11.27;;;6.75;;
24557;SDS011;12726;49.148;8.582;2023-08-17T09:24:44;6.50;;;5.70;;
24557;SDS011;12726;49.148;8.582;2023-08-17T09:27:30;6.10;;;5.47;;
24557;SDS011;12726;49.148;8.582;2023-08-17T09:30:16;8.23;;;6.20;;
24557;SDS011;12726;49.148;8.582;2023-08-17T09:33:02;10.50;;;6.63;;
24557;SDS011;12726;49.148;8.582;2023-08-17T09:35:48;11.40;;;5.80;;
24557;SDS011;12726;49.148;8.582;2023-08-17T09:38:34;7.60;;;6.57;;
24557;SDS011;12726;49.148;8.582;2023-08-17T09:41:23;8.13;;;5.57;;
24557;SDS011;12726;49.148;8.582;2023-08-17T09:44:09;8.60;;;5.93;;
24557;SDS011;12726;49.148;8.582;2023-08-17T09:46:55;6.25;;;5.65;;
24557;SDS011;12726;49.148;8.582;2023-08-17T09:49:40;6.18;;;4.80;;
24557;SDS011;12726;49.148;8.582;2023-08-17T09:52:25;5.75;;;5.18;;
24557;SDS011;12726;49.148;8.582;2023-08-17T09:55:11;7.40;;;5.97;;
24557;SDS011;12726;49.148;8.582;2023-08-17T09:57:59;8.77;;;5.38;;
24557;SDS011;12726;49.148;8.582;2023-08-17T10:00:46;8.75;;;6.25;;
24557;SDS011;12726;49.148;8.582;2023-08-17T10:03:33;7.97;;;5.82;;
24557;SDS011;12726;49.148;8.582;2023-08-17T10:06:20;7.18;;;6.35;;
24557;SDS011;12726;49.148;8.582;2023-08-17T10:09:08;7.53;;;6.50;;
24557;SDS011;12726;49.148;8.582;2023-08-17T10:11:57;6.88;;;5.68;;
24557;SDS011;12726;49.148;8.582;2023-08-17T10:14:49;8.18;;;5.75;;
24557;SDS011;12726;49.148;8.582;2023-08-17T10:17:39;6.20;;;5.10;;
24557;SDS011;12726;49.148;8.582;2023-08-17T10:20:31;6.82;;;5.63;;
24557;SDS011;12726;49.148;8.582;2023-08-17T10:23:19;7.43;;;5.35;;
24557;SDS011;12726;49.148;8.582;2023-08-17T10:26:07;6.22;;;5.35;;
24557;SDS011;12726;49.148;8.582;2023-08-17T10:28:53;5.78;;;5.15;;
24557;SDS011;12726;49.148;8.582;2023-08-17T10:31:44;5.95;;;5.10;;
24557;SDS011;12726;49.148;8.582;2023-08-17T10:34:30;6.10;;;5.50;;
24557;SDS011;12726;49.148;8.582;2023-08-17T10:37:19;5.78;;;5.20;;
24557;SDS011;12726;49.148;8.582;2023-08-17T10:40:05;6.88;;;5.53;;
24557;SDS011;12726;49.148;8.582;2023-08-17T10:42:53;10.38;;;5.40;;
24557;SDS011;12726;49.148;8.582;2023-08-17T10:45:39;8.07;;;5.18;;
24557;SDS011;12726;49.148;8.582;2023-08-17T10:48:29;6.15;;;5.28;;
24557;SDS011;12726;49.148;8.582;2023-08-17T10:51:14;7.13;;;5.15;;
24557;SDS011;12726;49.148;8.582;2023-08-17T10:54:01;8.20;;;5.18;;
24557;SDS011;12726;49.148;8.582;2023-08-17T10:56:47;5.63;;;3.92;;
24557;SDS011;12726;49.148;8.582;2023-08-17T10:59:33;6.50;;;4.65;;
24557;SDS011;12726;49.148;8.582;2023-08-17T11:02:21;5.47;;;4.70;;
24557;SDS011;12726;49.148;8.582;2023-08-17T11:05:08;7.82;;;4.78;;
24557;SDS011;12726;49.148;8.582;2023-08-17T11:07:54;6.97;;;4.13;;
24557;SDS011;12726;49.148;8.582;2023-08-17T11:10:40;6.43;;;4.68;;
24557;SDS011;12726;49.148;8.582;2023-08-17T11:13:27;6.80;;;5.07;;
24557;SDS011;12726;49.148;8.582;2023-08-17T11:16:13;7.95;;;4.72;;
24557;SDS011;12726;49.148;8.582;2023-08-17T11:19:03;5.38;;;4.88;;
24557;SDS011;12726;49.148;8.582;2023-08-17T11:21:49;6.72;;;5.63;;
24557;SDS011;12726;49.148;8.582;2023-08-17T11:24:36;5.40;;;4.60;;
24557;SDS011;12726;49.148;8.582;2023-08-17T11:27:24;6.22;;;5.30;;
24557;SDS011;12726;49.148;8.582;2023-08-17T11:30:11;7.55;;;5.90;;
24557;SDS011;12726;49.148;8.582;2023-08-17T11:32:57;8.10;;;6.30;;
24557;SDS011;12726;49.148;8.582;2023-08-17T11:35:42;10.02;;;6.88;;
24557;SDS011;12726;49.148;8.582;2023-08-17T11:38:31;8.75;;;6.75;;
24557;SDS011;12726;49.148;8.582;2023-08-17T11:41:16;6.68;;;5.97;;
24557;SDS011;12726;49.148;8.582;2023-08-17T11:44:02;10.40;;;6.80;;
24557;SDS011;12726;49.148;8.582;2023-08-17T11:46:49;8.48;;;6.93;;
24557;SDS011;12726;49.148;8.582;2023-08-17T11:49:35;8.63;;;6.85;;
24557;SDS011;12726;49.148;8.582;2023-08-17T11:52:20;12.00;;;7.35;;
24557;SDS011;12726;49.148;8.582;2023-08-17T11:55:08;11.85;;;8.40;;
24557;SDS011;12726;49.148;8.582;2023-08-17T11:57:54;11.95;;;8.68;;
24557;SDS011;12726;49.148;8.582;2023-08-17T12:00:39;10.18;;;8.00;;
24557;SDS011;12726;49.148;8.582;2023-08-17T12:03:27;9.90;;;7.95;;
24557;SDS011;12726;49.148;8.582;2023-08-17T12:06:13;10.60;;;8.13;;
24557;SDS011;12726;49.148;8.582;2023-08-17T12:09:04;10.23;;;8.48;;
24557;SDS011;12726;49.148;8.582;2023-08-17T12:11:56;11.32;;;8.50;;
24557;SDS011;12726;49.148;8.582;2023-08-17T12:14:43;13.25;;;9.02;;
24557;SDS011;12726;49.148;8.582;2023-08-17T12:17:29;10.60;;;8.15;;
24557;SDS011;12726;49.148;8.582;2023-08-17T12:20:17;10.13;;;8.88;;
24557;SDS011;12726;49.148;8.582;2023-08-17T12:23:06;10.97;;;8.43;;
24557;SDS011;12726;49.148;8.582;2023-08-17T12:25:52;11.15;;;8.30;;
24557;SDS011;12726;49.148;8.582;2023-08-17T12:28:41;9.77;;;7.97;;
24557;SDS011;12726;49.148;8.582;2023-08-17T12:31:26;9.20;;;7.63;;
24557;SDS011;12726;49.148;8.582;2023-08-17T12:34:14;11.27;;;8.15;;
24557;SDS011;12726;49.148;8.582;2023-08-17T12:36:59;7.50;;;6.68;;
24557;SDS011;12726;49.148;8.582;2023-08-17T12:39:45;9.20;;;7.03;;
24557;SDS011;12726;49.148;8.582;2023-08-17T12:42:30;8.43;;;7.55;;
24557;SDS011;12726;49.148;8.582;2023-08-17T12:45:17;8.35;;;7.43;;
24557;SDS011;12726;49.148;8.582;2023-08-17T12:48:02;11.35;;;7.78;;
24557;SDS011;12726;49.148;8.582;2023-08-17T12:50:47;10.07;;;7.03;;
24557;SDS011;12726;49.148;8.582;2023-08-17T12:53:33;8.57;;;6.78;;
24557;SDS011;12726;49.148;8.582;2023-08-17T12:56:18;7.25;;;6.47;;
24557;SDS011;12726;49.148;8.582;2023-08-17T12:59:04;7.57;;;6.82;;
24557;SDS011;12726;49.148;8.582;2023-08-17T13:01:51;9.18;;;7.00;;
24557;SDS011;12726;49.148;8.582;2023-08-17T13:04:36;6.65;;;5.90;;
24557;SDS011;12726;49.148;8.582;2023-08-17T13:07:22;8.38;;;6.25;;
24557;SDS011;12726;49.148;8.582;2023-08-17T13:10:07;8.02;;;6.05;;
24557;SDS011;12726;49.148;8.582;2023-08-17T13:12:52;6.85;;;6.22;;
24557;SDS011;12726;49.148;8.582;2023-08-17T13:15:40;8.48;;;6.40;;
24557;SDS011;12726;49.148;8.582;2023-08-17T13:18:27;8.45;;;7.55;;
24557;SDS011;12726;49.148;8.582;2023-08-17T13:21:13;8.43;;;6.43;;
24557;SDS011;12726;49.148;8.582;2023-08-17T13:24:01;8.85;;;5.97;;
24557;SDS011;12726;49.148;8.582;2023-08-17T13:26:47;7.22;;;6.53;;
24557;SDS011;12726;49.148;8.582;2023-08-17T13:29:36;7.68;;;6.30;;
24557;SDS011;12726;49.148;8.582;2023-08-17T13:32:22;8.32;;;6.43;;
24557;SDS011;12726;49.148;8.582;2023-08-17T13:35:09;8.88;;;6.30;;
24557;SDS011;12726;49.148;8.582;2023-08-17T13:37:54;8.25;;;6.03;;
24557;SDS011;12726;49.148;8.582;2023-08-17T13:40:41;8.82;;;6.65;;
24557;SDS011;12726;49.148;8.582;2023-08-17T13:43:26;8.30;;;7.50;;
24557;SDS011;12726;49.148;8.582;2023-08-17T13:46:12;6.80;;;6.10;;
24557;SDS011;12726;49.148;8.582;2023-08-17T13:48:57;10.18;;;6.70;;
24557;SDS011;12726;49.148;8.582;2023-08-17T13:51:44;10.07;;;6.82;;
24557;SDS011;12726;49.148;8.582;2023-08-17T13:54:30;10.02;;;7.82;;
24557;SDS011;12726;49.148;8.582;2023-08-17T13:57:15;9.63;;;6.40;;
24557;SDS011;12726;49.148;8.582;2023-08-17T14:00:01;7.65;;;6.80;;
24557;SDS011;12726;49.148;8.582;2023-08-17T14:02:48;10.18;;;6.40;;
24557;SDS011;12726;49.148;8.582;2023-08-17T14:05:33;7.85;;;6.45;;
24557;SDS011;12726;49.148;8.582;2023-08-17T14:08:20;7.47;;;6.18;;
24557;SDS011;12726;49.148;8.582;2023-08-17T14:11:05;8.57;;;6.13;;
24557;SDS011;12726;49.148;8.582;2023-08-17T14:13:51;8.18;;;6.85;;
24557;SDS011;12726;49.148;8.582;2023-08-17T14:16:36;8.18;;;6.82;;
24557;SDS011;12726;49.148;8.582;2023-08-17T14:19:22;10.05;;;6.57;;
24557;SDS011;12726;49.148;8.582;2023-08-17T14:22:07;9.15;;;6.95;;
24557;SDS011;12726;49.148;8.582;2023-08-17T14:24:54;6.80;;;5.80;;
24557;SDS011;12726;49.148;8.582;2023-08-17T14:27:39;9.48;;;6.93;;
24557;SDS011;12726;49.148;8.582;2023-08-17T14:30:24;9.30;;;7.68;;
24557;SDS011;12726;49.148;8.582;2023-08-17T14:33:10;8.27;;;6.75;;
24557;SDS011;12726;49.148;8.582;2023-08-17T14:35:56;8.63;;;6.50;;
24557;SDS011;12726;49.148;8.582;2023-08-17T14:38:41;9.93;;;6.97;;
24557;SDS011;12726;49.148;8.582;2023-08-17T14:41:28;8.90;;;7.03;;
24557;SDS011;12726;49.148;8.582;2023-08-17T14:44:16;8.65;;;5.82;;
24557;SDS011;12726;49.148;8.582;2023-08-17T14:47:01;8.27;;;5.93;;
24557;SDS011;12726;49.148;8.582;2023-08-17T14:49:47;7.53;;;5.63;;
24557;SDS011;12726;49.148;8.582;2023-08-17T14:52:33;7.97;;;6.68;;
24557;SDS011;12726;49.148;8.582;2023-08-17T14:55:18;7.20;;;6.10;;
24557;SDS011;12726;49.148;8.582;2023-08-17T14:58:05;6.43;;;5.82;;
24557;SDS011;12726;49.148;8.582;2023-08-17T15:00:50;8.13;;;7.15;;
24557;SDS011;12726;49.148;8.582;2023-08-17T15:03:35;7.28;;;6.30;;
24557;SDS011;12726;49.148;8.582;2023-08-17T15:06:21;8.05;;;5.72;;
24557;SDS011;12726;49.148;8.582;2023-08-17T15:09:07;7.85;;;5.97;;
24557;SDS011;12726;49.148;8.582;2023-08-17T15:11:52;7.18;;;6.28;;
24557;SDS011;12726;49.148;8.582;2023-08-17T15:14:39;7.03;;;5.55;;
24557;SDS011;12726;49.148;8.582;2023-08-17T15:17:25;8.52;;;6.45;;
24557;SDS011;12726;49.148;8.582;2023-08-17T15:20:10;8.52;;;5.90;;
24557;SDS011;12726;49.148;8.582;2023-08-17T15:22:56;6.47;;;5.15;;
24557;SDS011;12726;49.148;8.582;2023-08-17T15:25:41;6.55;;;5.95;;
24557;SDS011;12726;49.148;8.582;2023-08-17T15:28:26;7.90;;;5.95;;
24557;SDS011;12726;49.148;8.582;2023-08-17T15:31:13;8.85;;;5.57;;
24557;SDS011;12726;49.148;8.582;2023-08-17T15:33:59;6.00;;;5.43;;
24557;SDS011;12726;49.148;8.582;2023-08-17T15:36:45;7.97;;;5.68;;
24557;SDS011;12726;49.148;8.582;2023-08-17T15:39:30;6.40;;;5.78;;
24557;SDS011;12726;49.148;8.582;2023-08-17T15:42:16;7.28;;;5.85;;
24557;SDS011;12726;49.148;8.582;2023-08-17T15:45:01;7.43;;;5.55;;
24557;SDS011;12726;49.148;8.582;2023-08-17T15:47:48;9.15;;;5.72;;
24557;SDS011;12726;49.148;8.582;2023-08-17T15:50:34;7.97;;;5.88;;
24557;SDS011;12726;49.148;8.582;2023-08-17T15:53:19;8.52;;;5.85;;
24557;SDS011;12726;49.148;8.582;2023-08-17T15:56:04;8.45;;;5.63;;
24557;SDS011;12726;49.148;8.582;2023-08-17T15:58:50;9.00;;;5.72;;
24557;SDS011;12726;49.148;8.582;2023-08-17T16:01:35;6.50;;;5.30;;
24557;SDS011;12726;49.148;8.582;2023-08-17T16:04:22;7.18;;;4.88;;
24557;SDS011;12726;49.148;8.582;2023-08-17T16:07:07;7.35;;;4.75;;
24557;SDS011;12726;49.148;8.582;2023-08-17T16:09:53;5.28;;;4.53;;
24557;SDS011;12726;49.148;8.582;2023-08-17T16:12:38;6.07;;;4.63;;
24557;SDS011;12726;49.148;8.582;2023-08-17T16:15:23;5.55;;;4.88;;
24557;SDS011;12726;49.148;8.582;2023-08-17T16:18:09;5.55;;;4.85;;
24557;SDS011;12726;49.148;8.582;2023-08-17T16:20:55;6.70;;;4.60;;
24557;SDS011;12726;49.148;8.582;2023-08-17T16:23:41;6.05;;;4.25;;
24557;SDS011;12726;49.148;8.582;2023-08-17T16:26:27;5.63;;;5.03;;
24557;SDS011;12726;49.148;8.582;2023-08-17T16:29:12;5.13;;;4.63;;
24557;SDS011;12726;49.148;8.582;2023-08-17T16:31:57;6.90;;;5.55;;
24557;SDS011;12726;49.148;8.582;2023-08-17T16:34:44;6.43;;;5.53;;
24557;SDS011;12726;49.148;8.582;2023-08-17T16:37:32;8.00;;;5.40;;